Time;durP1;ratioP1;P1;durP2;ratioP2;P2;SDS_P1;SDS_P2;PMS_P1;PMS_P2;Temp;Humidity;BMP_temperature;BMP_pressure;BME280_temperature;BME280_humidity;BME280_pressure;Samples;Min_cycle;Max_cycle;Signal;HPM_P1;HPM_P2
2023/06/06 00:03:55;;;;;;;10.23;3.70;;;;;;;18.24;53.29;101077.42;5227303;56;1141276;-73
2023/06/06 00:08:55;;;;;;;18.27;3.50;;;;;;;18.07;53.89;101076.94;5165294;56;1141430;-70
2023/06/06 00:14:00;;;;;;;12.16;2.88;;;;;;;17.95;54.50;101080.00;5237445;56;1141035;-70
2023/06/06 00:19:06;;;;;;;6.03;3.40;;;;;;;17.80;55.28;101079.70;5259755;56;1141008;-68
2023/06/06 00:24:11;;;;;;;11.07;3.63;;;;;;;17.70;56.29;101071.75;5185210;56;1138567;-74
2023/06/06 00:29:17;;;;;;;9.73;2.73;;;;;;;17.71;56.93;101069.42;5239520;56;1140908;-68
2023/06/06 00:34:24;;;;;;;8.25;2.83;;;;;;;17.73;57.10;101059.38;5247803;56;1139289;-74
2023/06/06 00:39:30;;;;;;;6.43;3.37;;;;;;;17.71;57.14;101062.73;5209282;56;1139456;-74
2023/06/06 00:44:35;;;;;;;3.50;3.00;;;;;;;17.64;57.37;101072.84;5239659;56;1138612;-72
2023/06/06 00:49:45;;;;;;;5.17;2.77;;;;;;;17.62;57.57;101061.41;5239724;56;1138762;-70
2023/06/06 00:54:50;;;;;;;3.63;2.83;;;;;;;17.52;57.42;101070.35;5221466;56;1138962;-72
2023/06/06 00:59:56;;;;;;;7.60;3.73;;;;;;;17.26;56.84;101073.89;5207377;56;1138691;-74
2023/06/06 01:05:02;;;;;;;8.43;2.80;;;;;;;17.01;56.84;101072.72;5207164;56;1138814;-72
2023/06/06 01:10:10;;;;;;;4.23;3.10;;;;;;;17.02;57.29;101067.23;5175798;56;1139379;-75
2023/06/06 01:15:23;;;;;;;6.50;2.97;;;;;;;17.15;57.48;101067.73;5157003;56;1138854;-71
2023/06/06 01:20:30;;;;;;;9.60;3.27;;;;;;;17.21;56.96;101068.98;5156154;56;1139091;-72
2023/06/06 01:25:37;;;;;;;9.98;3.10;;;;;;;17.18;56.47;101063.92;5188337;56;1139026;-74
2023/06/06 01:30:44;;;;;;;10.30;3.30;;;;;;;17.17;56.63;101064.42;5186801;56;1138632;-70
2023/06/06 01:36:28;;;;;;;4.10;3.27;;;;;;;17.19;56.60;101059.77;5152342;57;1140556;-71
2023/06/06 01:41:37;;;;;;;6.72;3.72;;;;;;;17.22;56.46;101063.48;5152841;57;1138732;-73
2023/06/06 01:46:43;;;;;;;7.53;3.37;;;;;;;17.22;56.56;101072.84;5152294;57;1138932;-74
2023/06/06 01:51:49;;;;;;;9.30;2.63;;;;;;;17.13;56.30;101070.20;5206358;56;1138973;-70
2023/06/06 01:56:55;;;;;;;6.30;2.90;;;;;;;17.03;56.40;101067.58;5243492;56;1138690;-72
2023/06/06 02:02:00;;;;;;;7.97;3.40;;;;;;;16.96;56.83;101067.80;5237047;56;1138764;-72
2023/06/06 02:07:06;;;;;;;9.90;3.63;;;;;;;16.93;57.55;101073.97;5211487;56;1138903;-70
2023/06/06 02:12:12;;;;;;;16.00;3.63;;;;;;;16.94;57.82;101071.64;5207433;56;1138872;-73
2023/06/06 02:17:18;;;;;;;10.93;3.37;;;;;;;16.97;57.70;101065.98;5206368;56;1140701;-73
2023/06/06 02:22:24;;;;;;;5.30;3.10;;;;;;;16.91;57.35;101069.25;5207203;56;1140879;-73
2023/06/06 02:27:30;;;;;;;6.40;3.03;;;;;;;16.72;57.57;101065.66;5216891;56;1138958;-70
2023/06/06 02:32:36;;;;;;;3.60;3.30;;;;;;;16.54;57.87;101067.35;5212687;56;1138746;-74
2023/06/06 02:37:41;;;;;;;6.97;3.73;;;;;;;16.54;58.57;101067.35;5229849;56;1138850;-70
2023/06/06 02:42:47;;;;;;;18.57;4.17;;;;;;;16.61;58.87;101067.14;5202705;56;1138733;-69
2023/06/06 02:47:53;;;;;;;7.17;3.37;;;;;;;16.62;58.64;101071.50;5215043;56;1140650;-74
2023/06/06 02:53:03;;;;;;;9.37;3.80;;;;;;;16.58;58.64;101070.58;5239678;56;1139179;-70
2023/06/06 02:58:06;;;;;;;8.93;3.67;;;;;;;16.46;59.08;101064.08;5195789;56;1138571;-75
2023/06/06 03:03:12;;;;;;;9.87;3.90;;;;;;;16.34;59.54;101065.72;5214077;56;1138512;-70
2023/06/06 03:08:19;;;;;;;12.03;4.37;;;;;;;16.21;60.00;101068.66;5229954;56;1139001;-75
2023/06/06 03:13:24;;;;;;;28.63;4.90;;;;;;;16.17;60.64;101066.80;5191556;56;1140717;-70
2023/06/06 03:18:32;;;;;;;18.60;4.07;;;;;;;16.18;60.80;101075.16;5227067;56;1140841;-71
2023/06/06 03:23:40;;;;;;;11.47;4.07;;;;;;;16.23;60.88;101068.52;5194685;56;1140770;-68
2023/06/06 03:28:46;;;;;;;10.87;3.80;;;;;;;16.33;61.12;101064.04;4975727;59;1141049;-70
2023/06/06 03:33:53;;;;;;;14.27;4.40;;;;;;;16.36;61.03;101066.40;5140784;57;1141235;-72
2023/06/06 03:39:00;;;;;;;12.47;4.10;;;;;;;16.37;61.10;101066.75;4994958;59;1141284;-70
2023/06/06 03:44:05;;;;;;;19.20;4.87;;;;;;;16.43;61.33;101065.70;5140781;57;1140816;-69
2023/06/06 03:49:11;;;;;;;15.43;4.70;;;;;;;16.50;61.20;101061.94;5140847;57;1140740;-73
2023/06/06 03:54:17;;;;;;;10.30;4.10;;;;;;;16.56;61.18;101064.54;5230248;56;1140734;-72
2023/06/06 03:59:23;;;;;;;13.67;4.57;;;;;;;16.58;61.14;101056.73;5140759;57;1140488;-73
2023/06/06 04:04:30;;;;;;;22.67;4.90;;;;;;;16.63;61.52;101068.36;5140574;57;1140637;-69
2023/06/06 04:09:36;;;;;;;15.13;4.07;;;;;;;16.66;61.69;101064.05;5219014;56;1141228;-69
2023/06/06 04:14:42;;;;;;;9.97;4.43;;;;;;;16.71;61.76;101055.95;5258657;56;1141226;-69
2023/06/06 04:19:48;;;;;;;18.20;5.80;;;;;;;16.77;62.14;101051.38;5238469;56;1138859;-70
2023/06/06 04:24:53;;;;;;;24.00;6.43;;;;;;;16.83;62.17;101045.92;5184176;56;1140729;-72
2023/06/06 04:29:59;;;;;;;9.70;4.60;;;;;;;16.88;61.85;101042.33;5258761;56;1141074;-70
2023/06/06 04:35:07;;;;;;;10.30;4.30;;;;;;;17.06;61.50;101055.27;5238553;56;1138416;-69
2023/06/06 04:40:12;;;;;;;16.80;4.17;;;;;;;17.18;61.13;101054.08;5162915;56;1140478;-70
2023/06/06 04:45:18;;;;;;;11.93;4.13;;;;;;;17.32;60.90;101047.38;5172429;57;1141246;-72
2023/06/06 04:50:24;;;;;;;14.77;4.67;;;;;;;17.48;60.80;101047.56;5152175;57;1140788;-69
2023/06/06 04:55:30;;;;;;;12.73;4.00;;;;;;;17.64;60.46;101043.41;5152546;57;1140391;-71
2023/06/06 05:00:35;;;;;;;8.85;3.52;;;;;;;17.82;60.10;101049.62;5152599;57;1140865;-72
2023/06/06 05:05:41;;;;;;;13.93;4.03;;;;;;;17.96;60.00;101053.09;5182303;56;1138730;-74
2023/06/06 05:10:47;;;;;;;12.27;3.73;;;;;;;18.09;59.78;101044.66;5238859;56;1140512;-70
2023/06/06 05:15:52;;;;;;;6.00;3.50;;;;;;;18.26;59.58;101047.81;5238763;56;1140794;-69
2023/06/06 05:21:03;;;;;;;8.40;3.70;;;;;;;18.41;57.95;101050.27;5188203;56;1138844;-72
2023/06/06 05:26:06;;;;;;;11.85;3.20;;;;;;;18.57;57.57;101049.05;5193208;56;1138433;-71
2023/06/06 05:31:16;;;;;;;8.13;3.65;;;;;;;18.68;56.96;101053.82;5238960;56;1140863;-68
2023/06/06 05:36:19;;;;;;;9.50;3.83;;;;;;;18.81;57.10;101060.92;5250316;56;1138734;-75
2023/06/06 05:41:26;;;;;;;7.57;3.77;;;;;;;18.90;56.59;101054.63;5152492;57;1138597;-69
2023/06/06 05:46:32;;;;;;;8.83;3.83;;;;;;;19.02;56.51;101056.52;5152831;57;1138875;-75
2023/06/06 05:51:38;;;;;;;12.07;4.17;;;;;;;19.09;56.50;101066.45;5172059;56;1138631;-69
2023/06/06 05:56:43;;;;;;;14.37;3.83;;;;;;;19.15;57.14;101062.27;5152421;57;1140502;-69
2023/06/06 06:01:49;;;;;;;10.93;3.12;;;;;;;19.27;57.03;101064.49;5152530;57;1140478;-70
2023/06/06 06:06:55;;;;;;;9.15;3.17;;;;;;;19.41;56.79;101064.88;5203583;56;1141027;-69
2023/06/06 06:12:00;;;;;;;6.20;3.03;;;;;;;19.57;56.17;101071.16;5237378;56;1138717;-70
2023/06/06 06:17:06;;;;;;;6.50;3.30;;;;;;;19.73;56.88;101069.02;5159024;56;1139121;-72
2023/06/06 06:22:12;;;;;;;4.72;2.80;;;;;;;19.88;55.55;101069.20;5160994;57;1138917;-72
2023/06/06 06:27:17;;;;;;;6.15;4.85;;;;;;;20.03;55.73;101068.88;5202043;56;1138995;-71
2023/06/06 06:32:23;;;;;;;7.72;3.20;;;;;;;20.15;54.56;101077.48;5227435;56;1138631;-68
2023/06/06 06:37:30;;;;;;;8.30;2.98;;;;;;;20.20;53.52;101075.95;5199066;56;1138922;-73
2023/06/06 06:42:40;;;;;;;5.55;3.22;;;;;;;20.23;53.25;101086.86;5161084;57;1138941;-72
2023/06/06 06:47:48;;;;;;;8.40;3.00;;;;;;;20.22;53.17;101089.21;5222861;56;1138910;-69
2023/06/06 06:52:56;;;;;;;17.20;3.65;;;;;;;20.24;53.00;101089.88;5179415;56;1138701;-72
2023/06/06 06:58:02;;;;;;;10.85;3.40;;;;;;;20.26;53.20;101100.80;5160805;57;1140609;-69
2023/06/06 07:03:08;;;;;;;13.83;3.62;;;;;;;20.29;53.12;101095.10;5141002;57;1140671;-69
2023/06/06 07:08:14;;;;;;;13.62;3.60;;;;;;;20.35;53.52;101099.78;5140846;57;1140834;-75
2023/06/06 07:13:19;;;;;;;7.25;2.90;;;;;;;20.43;53.06;101092.27;5162936;56;1140992;-69
2023/06/06 07:18:25;;;;;;;6.90;3.55;;;;;;;20.54;53.19;101099.14;5152222;57;1138076;-73
2023/06/06 07:23:31;;;;;;;3.45;2.75;;;;;;;20.63;53.55;101095.42;5152176;57;1138914;-73
2023/06/06 07:28:36;;;;;;;6.53;2.65;;;;;;;20.76;52.92;101094.92;5236364;56;1139256;-68
2023/06/06 07:33:42;;;;;;;7.03;2.50;;;;;;;20.84;52.19;101099.77;5258784;56;1138685;-74
2023/06/06 07:38:48;;;;;;;10.75;2.62;;;;;;;20.94;52.89;101100.40;5187250;56;1138514;-72
2023/06/06 07:43:53;;;;;;;11.95;2.95;;;;;;;21.11;52.36;101105.23;5152285;56;1140560;-74
2023/06/06 07:49:00;;;;;;;9.45;3.30;;;;;;;21.24;51.42;101100.16;5171787;56;1140946;-72
2023/06/06 07:54:06;;;;;;;7.65;2.67;;;;;;;21.37;51.33;101098.29;5152346;56;1138844;-73
2023/06/06 07:59:13;;;;;;;3.77;2.65;;;;;;;21.47;52.41;101096.22;5152229;57;1138562;-71
2023/06/06 08:04:18;;;;;;;5.70;2.67;;;;;;;21.67;50.77;101093.42;5172165;57;1139040;-71
2023/06/06 08:09:24;;;;;;;5.10;2.85;;;;;;;21.79;51.62;101090.31;5161114;56;1138537;-72
2023/06/06 08:14:31;;;;;;;9.00;2.92;;;;;;;21.92;51.31;101084.67;5152187;56;1138900;-69
2023/06/06 08:19:37;;;;;;;8.67;2.27;;;;;;;22.09;50.53;101082.73;5152884;56;1138996;-71
2023/06/06 08:24:43;;;;;;;4.60;2.05;;;;;;;22.26;48.37;101081.58;5189122;56;1138971;-73
2023/06/06 08:29:49;;;;;;;5.47;1.90;;;;;;;22.51;45.96;101074.11;5239434;56;1138587;-71
2023/06/06 08:34:55;;;;;;;6.45;2.02;;;;;;;22.71;45.19;101075.26;5239289;56;1138952;-71
2023/06/06 08:40:00;;;;;;;5.50;2.00;;;;;;;22.92;44.15;101066.95;5186827;56;1138652;-73
2023/06/06 08:45:07;;;;;;;6.58;2.65;;;;;;;22.99;41.39;101068.73;5152878;57;1138394;-71
2023/06/06 08:50:13;;;;;;;4.78;1.92;;;;;;;23.13;42.22;101060.31;5154383;56;1138386;-72
2023/06/06 08:55:20;;;;;;;5.17;1.95;;;;;;;23.31;41.28;101061.27;5259589;56;1138671;-69
2023/06/06 09:00:26;;;;;;;7.80;1.60;;;;;;;23.59;39.66;101056.86;5239424;56;1138925;-70
2023/06/06 09:05:32;;;;;;;1.47;1.30;;;;;;;23.80;36.58;101057.41;5182873;56;1138760;-71
2023/06/06 09:10:37;;;;;;;11.78;2.00;;;;;;;23.93;35.96;101052.64;5250234;56;1138643;-69
2023/06/06 09:15:45;;;;;;;7.53;1.70;;;;;;;23.95;36.88;101052.77;5229843;56;1141837;-69
2023/06/06 09:20:53;;;;;;;8.03;2.05;;;;;;;24.04;35.75;101058.88;5229980;56;1138478;-72
2023/06/06 09:26:00;;;;;;;2.15;1.87;;;;;;;24.03;35.42;101059.38;5209938;56;1138594;-71
2023/06/06 09:31:29;;;;;;;5.03;1.87;;;;;;;24.12;36.31;101053.34;5239062;56;1138913;-74
2023/06/06 09:36:34;;;;;;;11.70;1.82;;;;;;;24.23;34.34;101059.61;5221938;56;1138811;-71
2023/06/06 09:41:45;;;;;;;11.87;1.73;;;;;;;24.31;33.56;101062.16;5152217;57;1140977;-70
2023/06/06 09:46:53;;;;;;;7.83;1.80;;;;;;;24.37;32.51;101063.25;5172395;57;1141097;-72
2023/06/06 09:51:58;;;;;;;3.27;2.08;;;;;;;24.41;32.54;101055.91;5149019;56;1138499;-69
2023/06/06 09:57:10;;;;;;;3.52;1.92;;;;;;;24.58;33.09;101054.27;5152541;57;1138802;-68
2023/06/06 10:02:20;;;;;;;9.48;2.10;;;;;;;24.75;32.46;101046.16;5172590;56;1138713;-71
2023/06/06 10:07:26;;;;;;;2.40;1.77;;;;;;;24.90;33.91;101050.39;5152520;56;1138452;-73
2023/06/06 10:12:33;;;;;;;7.70;2.62;;;;;;;25.01;33.35;101044.98;5152738;57;1139202;-70
2023/06/06 10:17:41;;;;;;;3.70;1.90;;;;;;;25.06;33.66;101033.53;5172693;56;1138852;-72
2023/06/06 10:22:47;;;;;;;7.80;2.00;;;;;;;25.03;32.27;101044.78;5152628;56;1138686;-70
2023/06/06 10:28:15;;;;;;;9.20;2.50;;;;;;;24.99;31.41;101035.39;5192425;56;1138803;-73
2023/06/06 10:33:41;;;;;;;3.90;1.90;;;;;;;25.06;31.72;101034.89;5172324;57;1138913;-72
2023/06/06 10:39:18;;;;;;;8.20;1.92;;;;;;;25.06;31.72;101034.89;5152251;56;1138542;-71
2023/06/06 10:44:46;;;;;;;4.42;2.27;;;;;;;25.08;32.34;101036.36;5152379;57;1138462;-75
2023/06/06 10:50:14;;;;;;;4.55;1.95;;;;;;;25.22;33.39;101034.55;5152227;57;1138533;-71
2023/06/06 10:55:28;;;;;;;4.58;1.67;;;;;;;25.39;33.02;101026.38;5188382;56;1139078;-73
2023/06/06 11:00:36;;;;;;;6.55;2.05;;;;;;;25.52;32.37;101022.88;5233055;56;1138922;-70
2023/06/06 11:06:05;;;;;;;2.35;2.00;;;;;;;25.51;31.90;101025.30;5229370;56;1138966;-71
2023/06/06 11:11:29;;;;;;;3.50;1.70;;;;;;;25.49;30.11;101016.02;5172312;57;1139158;-72
2023/06/06 11:16:45;;;;;;;2.20;2.10;;;;;;;25.53;29.75;101015.90;5204646;56;1138698;-73
2023/06/06 11:21:54;;;;;;;6.10;1.87;;;;;;;25.58;29.41;101010.71;5238739;56;1139045;-70
2023/06/06 11:27:00;;;;;;;5.40;2.17;;;;;;;25.67;28.97;100995.12;5256756;56;1138612;-72
2023/06/06 11:32:12;;;;;;;6.92;1.72;;;;;;;25.83;30.15;100993.37;5238436;56;1138690;-70
2023/06/06 11:37:18;;;;;;;11.63;3.00;;;;;;;25.84;30.02;100985.55;5238670;56;1138630;-69
2023/06/06 11:42:24;;;;;;;6.30;2.60;;;;;;;25.92;29.61;100997.56;5258838;56;1140795;-73
2023/06/06 11:47:33;;;;;;;4.60;2.67;;;;;;;25.93;29.18;100983.48;5238476;56;1138949;-70
2023/06/06 11:52:48;;;;;;;3.22;2.10;;;;;;;25.95;28.31;100990.06;5226314;56;1138661;-70
2023/06/06 11:57:54;;;;;;;2.27;1.95;;;;;;;26.12;30.24;100992.15;5193976;56;1138652;-68
2023/06/06 12:03:00;;;;;;;4.40;1.90;;;;;;;26.22;28.88;100978.16;5152393;57;1138605;-71
2023/06/06 12:08:06;;;;;;;9.65;2.15;;;;;;;26.25;28.86;100981.81;5152155;57;1138436;-71
2023/06/06 12:13:12;;;;;;;4.53;1.77;;;;;;;26.16;28.78;100986.59;5171860;56;1138685;-73
2023/06/06 12:18:17;;;;;;;12.47;3.37;;;;;;;26.22;30.55;100973.56;5151940;57;1138428;-71
2023/06/06 12:23:31;;;;;;;3.37;2.90;;;;;;;26.26;29.01;100973.98;5156765;56;1140648;-70
2023/06/06 12:28:37;;;;;;;18.53;3.70;;;;;;;26.18;28.83;100972.83;5237781;56;1138930;-75
2023/06/06 12:33:46;;;;;;;4.75;2.35;;;;;;;26.12;28.59;100979.95;5253728;56;1140937;-72
2023/06/06 12:39:03;;;;;;;6.20;2.30;;;;;;;26.08;29.72;100973.79;5224344;56;1138460;-71
2023/06/06 12:44:16;;;;;;;3.08;2.77;;;;;;;26.02;27.77;100971.91;5233972;56;1138895;-76
2023/06/06 12:49:21;;;;;;;6.33;5.40;;;;;;;25.90;28.29;100959.50;5257939;56;1138927;-74
2023/06/06 12:54:27;;;;;;;5.25;1.72;;;;;;;25.84;28.53;100964.39;5180914;56;1138626;-71
2023/06/06 12:59:33;;;;;;;4.90;1.83;;;;;;;25.86;29.90;100958.25;5157223;57;1138898;-72
2023/06/06 13:04:40;;;;;;;8.28;4.17;;;;;;;25.85;29.85;100966.06;5176984;57;1138657;-72
2023/06/06 13:09:45;;;;;;;2.95;2.05;;;;;;;25.85;30.08;100962.83;5237743;56;1138442;-69
2023/06/06 13:14:51;;;;;;;8.58;2.27;;;;;;;25.79;29.30;100965.55;5244150;56;1138480;-74
2023/06/06 13:19:57;;;;;;;3.45;2.17;;;;;;;25.70;29.18;100967.62;5255769;56;1139277;-72
2023/06/06 13:25:03;;;;;;;2.00;1.70;;;;;;;25.57;29.18;100958.92;5221562;56;1138943;-69
2023/06/06 13:30:09;;;;;;;4.53;2.30;;;;;;;25.50;29.19;100954.03;5227867;56;1138573;-75
2023/06/06 13:35:15;;;;;;;4.55;1.87;;;;;;;25.45;29.53;100959.23;5247839;56;1138571;-69
2023/06/06 13:40:21;;;;;;;4.45;2.20;;;;;;;25.37;30.16;100958.56;5227773;56;1138395;-76
2023/06/06 13:45:27;;;;;;;4.95;2.02;;;;;;;25.41;29.73;100956.61;5227603;56;1138412;-71
2023/06/06 13:50:33;;;;;;;2.55;1.80;;;;;;;25.39;29.53;100946.49;5227937;56;1138807;-76
2023/06/06 13:55:38;;;;;;;1.85;1.55;;;;;;;25.33;29.64;100944.63;5226451;56;1138857;-74
2023/06/06 14:00:44;;;;;;;12.47;1.95;;;;;;;25.30;29.71;100939.61;5141459;57;1138605;-71
2023/06/06 14:05:49;;;;;;;4.10;2.08;;;;;;;25.19;29.15;100938.87;5206410;56;1140822;-74
2023/06/06 14:10:56;;;;;;;9.25;2.77;;;;;;;25.08;29.07;100940.27;5217642;56;1138575;-70
2023/06/06 14:16:02;;;;;;;7.10;2.47;;;;;;;25.06;28.82;100931.52;5141436;56;1138444;-73
2023/06/06 14:26:30;;;;;;;6.22;5.33;;;;;;;25.06;28.68;100934.22;5188633;56;1139239;-71
2023/06/06 14:31:36;;;;;;;2.60;1.98;;;;;;;24.99;28.75;100927.97;5247436;56;1139100;-70
2023/06/06 14:36:42;;;;;;;10.65;2.77;;;;;;;24.94;29.06;100924.19;5227252;56;1138608;-70
2023/06/06 14:41:47;;;;;;;5.17;1.90;;;;;;;24.90;28.95;100922.41;5187837;56;1140759;-75
2023/06/06 14:46:53;;;;;;;2.30;1.87;;;;;;;24.87;28.59;100913.33;5161316;57;1138971;-71
2023/06/06 14:52:06;;;;;;;4.90;2.22;;;;;;;24.84;28.48;100920.50;5141198;57;1138402;-69
2023/06/06 14:57:07;;;;;;;2.72;2.27;;;;;;;24.78;28.65;100913.17;5139446;57;1138450;-72
2023/06/06 15:02:13;;;;;;;4.33;1.98;;;;;;;24.74;28.87;100906.52;5240139;56;1139012;-72
2023/06/06 15:07:18;;;;;;;7.15;1.95;;;;;;;24.71;28.86;100906.92;5227299;56;1138654;-70
2023/06/06 15:12:24;;;;;;;8.25;2.55;;;;;;;24.71;29.46;100905.56;5170967;56;1138731;-74
2023/06/06 15:17:30;;;;;;;8.50;1.77;;;;;;;24.72;29.57;100903.18;5141652;56;1138955;-74
2023/06/06 15:22:36;;;;;;;9.33;2.02;;;;;;;24.74;30.12;100897.89;5165945;57;1138715;-71
2023/06/06 15:27:41;;;;;;;9.23;1.77;;;;;;;24.77;30.22;100903.39;5220168;56;1138667;-72
2023/06/06 15:32:47;;;;;;;5.05;1.82;;;;;;;24.78;30.75;100896.42;5238798;56;1138721;-73
2023/06/06 15:37:52;;;;;;;2.15;1.92;;;;;;;24.81;30.77;100891.97;5216007;56;1138903;-71
2023/06/06 15:42:58;;;;;;;8.08;2.33;;;;;;;24.82;31.04;100892.28;5149358;56;1138784;-73
2023/06/06 15:48:04;;;;;;;4.90;1.70;;;;;;;24.79;30.88;100883.22;5147620;57;1138718;-73
2023/06/06 15:53:09;;;;;;;9.68;6.55;;;;;;;24.77;31.16;100886.64;5228859;56;1138887;-72
2023/06/06 15:58:15;;;;;;;9.83;3.02;;;;;;;24.79;31.47;100873.75;5168967;56;1138631;-74
2023/06/06 16:03:21;;;;;;;8.38;4.47;;;;;;;24.81;31.55;100871.67;5152279;57;1138438;-70
2023/06/06 16:08:27;;;;;;;4.25;1.98;;;;;;;24.82;31.44;100870.64;5190840;56;1138925;-74
2023/06/06 16:13:33;;;;;;;14.98;2.87;;;;;;;24.83;31.96;100864.71;5231017;56;1139037;-70
2023/06/06 16:18:40;;;;;;;10.25;2.17;;;;;;;24.79;32.74;100866.15;5238456;56;1140497;-72
2023/06/06 16:23:45;;;;;;;3.27;1.95;;;;;;;24.70;34.10;100863.32;5205356;56;1141030;-73
2023/06/06 16:28:52;;;;;;;4.20;1.95;;;;;;;24.58;34.81;100868.48;5240940;56;1139010;-70
2023/06/06 16:33:57;;;;;;;7.05;2.20;;;;;;;24.52;35.74;100873.34;5155522;56;1138652;-71
2023/06/06 16:39:03;;;;;;;4.53;2.42;;;;;;;24.48;35.15;100873.41;5210077;56;1138699;-69
2023/06/06 16:44:12;;;;;;;4.90;2.35;;;;;;;24.38;34.46;100868.91;5207068;56;1139174;-69
2023/06/06 16:49:18;;;;;;;12.85;2.77;;;;;;;24.33;34.41;100874.06;5197907;56;1138393;-75
2023/06/06 16:54:24;;;;;;;5.08;2.40;;;;;;;24.30;34.79;100868.53;5207142;56;1140600;-70
2023/06/06 16:59:30;;;;;;;9.53;3.00;;;;;;;24.32;34.98;100862.94;5185037;56;1138961;-73
2023/06/06 17:04:35;;;;;;;9.58;3.20;;;;;;;24.33;35.18;100864.09;5186689;56;1138840;-71
2023/06/06 17:09:41;;;;;;;16.17;3.62;;;;;;;24.37;35.81;100860.47;5163850;56;1138702;-69
2023/06/06 17:14:47;;;;;;;8.43;3.87;;;;;;;24.40;35.47;100857.37;5175561;56;1141054;-76
2023/06/06 17:19:52;;;;;;;18.80;4.08;;;;;;;24.45;35.81;100865.18;5184947;56;1139075;-70
2023/06/06 17:24:59;;;;;;;20.55;3.47;;;;;;;24.51;36.97;100863.55;5195174;56;1140638;-73
2023/06/06 17:30:07;;;;;;;18.98;5.90;;;;;;;24.52;36.67;100855.76;5199931;56;1140579;-73
2023/06/06 17:35:12;;;;;;;5.67;3.30;;;;;;;24.51;36.39;100857.63;5226845;56;1140953;-73
2023/06/06 17:40:18;;;;;;;6.22;2.60;;;;;;;24.47;37.27;100844.19;5191321;56;1138645;-71
2023/06/06 17:45:24;;;;;;;9.78;4.33;;;;;;;24.47;37.27;100844.19;5198701;56;1138615;-74
2023/06/06 17:50:30;;;;;;;13.13;4.83;;;;;;;24.50;37.98;100851.06;5213436;56;1138800;-70
2023/06/06 17:55:36;;;;;;;23.50;5.10;;;;;;;24.53;38.82;100849.31;5177723;56;1141250;-72
2023/06/06 18:00:42;;;;;;;30.65;12.23;;;;;;;24.50;38.84;100845.14;5161909;56;1140770;-72
2023/06/06 18:05:47;;;;;;;62.27;17.95;;;;;;;24.50;38.84;100845.14;5190323;56;1142712;-69
2023/06/06 18:10:53;;;;;;;42.17;13.30;;;;;;;24.48;39.78;100844.50;5200315;56;1142956;-70
2023/06/06 18:15:59;;;;;;;16.65;7.17;;;;;;;24.42;40.09;100841.27;5240995;56;1142840;-72
2023/06/06 18:21:05;;;;;;;16.32;7.87;;;;;;;24.38;40.34;100849.46;5231476;56;1140701;-72
2023/06/06 18:26:10;;;;;;;28.25;6.62;;;;;;;24.34;40.19;100847.34;5220672;56;1140978;-73
2023/06/06 18:31:16;;;;;;;14.65;5.80;;;;;;;24.33;40.22;100857.33;5169709;56;1140510;-70
2023/06/06 18:36:21;;;;;;;20.70;7.10;;;;;;;24.31;40.79;100850.45;5186975;56;1141021;-72
2023/06/06 18:41:28;;;;;;;23.92;7.90;;;;;;;24.27;41.54;100856.80;5167165;56;1140738;-73
2023/06/06 18:46:33;;;;;;;17.87;8.73;;;;;;;24.27;42.16;100858.66;5139753;56;1140740;-73
2023/06/06 18:51:41;;;;;;;29.50;10.72;;;;;;;24.25;42.99;100857.52;5108438;56;1140554;-74
2023/06/06 18:56:46;;;;;;;28.07;9.10;;;;;;;24.23;43.33;100859.58;5104023;57;1143131;-72
2023/06/06 19:01:52;;;;;;;18.82;7.28;;;;;;;24.19;43.76;100865.02;5215407;56;1140989;-73
2023/06/06 19:06:57;;;;;;;17.37;5.42;;;;;;;24.11;43.77;100868.73;5156162;56;1141049;-74
2023/06/06 19:12:03;;;;;;;7.95;4.62;;;;;;;24.05;43.82;100864.63;5164552;56;1140783;-70
2023/06/06 19:17:10;;;;;;;26.17;5.70;;;;;;;24.01;44.20;100869.59;5174293;56;1138658;-71
2023/06/06 19:22:17;;;;;;;11.15;5.90;;;;;;;23.94;44.95;100870.59;5070660;58;1140603;-71
2023/06/06 19:27:23;;;;;;;15.78;7.20;;;;;;;23.84;45.97;100873.11;5155387;56;1140584;-71
2023/06/06 19:32:31;;;;;;;58.92;13.38;;;;;;;23.76;46.64;100871.08;5206790;56;1140742;-71
2023/06/06 19:37:36;;;;;;;19.52;7.05;;;;;;;23.65;48.08;100877.03;5208881;56;1142866;-70
2023/06/06 19:42:42;;;;;;;24.95;8.95;;;;;;;23.38;47.71;100878.61;5165141;56;1141280;-70
2023/06/06 19:47:49;;;;;;;55.17;16.57;;;;;;;23.26;48.37;100880.16;5163378;56;1140829;-75
2023/06/06 19:52:55;;;;;;;22.75;12.80;;;;;;;23.11;50.08;100876.17;5192466;56;1143062;-72
2023/06/06 19:58:01;;;;;;;36.00;17.42;;;;;;;23.02;51.13;100886.78;5152141;56;1142637;-72
2023/06/06 20:03:07;;;;;;;33.10;14.53;;;;;;;22.99;51.54;100895.24;5152008;57;1142841;-75
2023/06/06 20:08:12;;;;;;;35.05;15.25;;;;;;;22.96;49.93;100889.71;5172047;57;1143123;-75
2023/06/06 20:13:18;;;;;;;37.20;14.55;;;;;;;22.96;50.00;100891.57;5216416;56;1142595;-73
2023/06/06 20:18:24;;;;;;;45.70;14.38;;;;;;;22.91;50.13;100889.47;5067923;58;1142937;-69
2023/06/06 20:23:30;;;;;;;46.63;20.97;;;;;;;22.87;50.17;100899.47;5239230;56;1142784;-69
2023/06/06 20:28:36;;;;;;;43.17;24.98;;;;;;;22.79;50.80;100897.70;5259379;56;1142834;-74
2023/06/06 20:33:42;;;;;;;59.57;25.13;;;;;;;22.71;51.45;100899.98;5239160;56;1142588;-69
2023/06/06 20:38:50;;;;;;;36.17;17.10;;;;;;;22.63;51.02;100899.23;5233766;56;1142627;-72
2023/06/06 20:43:56;;;;;;;52.17;14.05;;;;;;;22.56;51.24;100896.47;5180399;56;1143347;-71
2023/06/06 20:49:02;;;;;;;31.20;12.50;;;;;;;22.50;50.69;100894.51;5193590;56;1142654;-70
2023/06/06 20:54:08;;;;;;;25.70;8.46;;;;;;;22.46;50.76;100898.59;5239250;56;1143055;-72
2023/06/06 20:59:14;;;;;;;17.70;6.80;;;;;;;22.32;50.97;100900.28;5231392;56;1140752;-74
2023/06/06 21:04:19;;;;;;;23.95;5.75;;;;;;;22.22;51.70;100902.94;5152647;57;1140766;-74
2023/06/06 21:09:25;;;;;;;22.80;6.60;;;;;;;22.14;52.93;100903.03;5152346;57;1140785;-68
2023/06/06 21:14:31;;;;;;;24.55;5.75;;;;;;;22.07;53.52;100900.23;5237582;56;1140919;-69
2023/06/06 21:19:36;;;;;;;19.75;5.58;;;;;;;21.99;53.59;100906.55;5259202;56;1140758;-72
2023/06/06 21:24:42;;;;;;;16.60;5.25;;;;;;;21.92;54.12;100904.22;5238964;56;1141094;-67
2023/06/06 21:29:47;;;;;;;17.90;6.37;;;;;;;21.83;54.50;100903.98;5239001;56;1140903;-71
2023/06/06 21:34:53;;;;;;;19.65;6.28;;;;;;;21.69;55.11;100904.79;5259301;56;1140735;-72
2023/06/06 21:39:58;;;;;;;19.50;8.63;;;;;;;21.60;56.03;100902.66;5230591;56;1140622;-71
2023/06/06 21:45:05;;;;;;;12.95;8.18;;;;;;;21.56;56.81;100908.07;5175766;56;1140513;-73
2023/06/06 21:50:12;;;;;;;23.73;9.48;;;;;;;21.53;57.10;100900.89;5226882;56;1141159;-73
2023/06/06 21:55:18;;;;;;;25.17;12.63;;;;;;;21.36;57.33;100902.36;5206670;56;1140492;-75
2023/06/06 22:00:23;;;;;;;25.92;11.25;;;;;;;21.06;57.56;100904.05;5176463;56;1142666;-74
2023/06/06 22:05:29;;;;;;;23.75;11.30;;;;;;;20.82;58.58;100901.48;5152643;57;1142884;-70
2023/06/06 22:10:35;;;;;;;33.90;13.32;;;;;;;20.75;59.63;100899.69;5189194;56;1143047;-75
2023/06/06 22:15:43;;;;;;;27.93;13.93;;;;;;;20.69;59.84;100903.40;5238788;56;1142857;-72
2023/06/06 22:20:49;;;;;;;22.93;8.70;;;;;;;20.75;60.86;100904.56;5238877;56;1142885;-73
2023/06/06 22:25:54;;;;;;;10.35;5.83;;;;;;;20.81;61.62;100908.37;5259059;56;1140742;-73
2023/06/06 22:31:00;;;;;;;22.32;11.25;;;;;;;20.72;61.68;100915.66;5238609;56;1141332;-70
2023/06/06 22:36:06;;;;;;;33.42;13.93;;;;;;;20.52;62.29;100917.08;5238715;56;1142577;-72
2023/06/06 22:41:12;;;;;;;33.85;14.33;;;;;;;20.41;62.89;100920.98;5229198;56;1143193;-71
2023/06/06 22:46:17;;;;;;;32.58;14.98;;;;;;;20.37;63.11;100916.96;5152273;56;1143047;-73
2023/06/06 22:51:23;;;;;;;28.42;13.03;;;;;;;20.42;63.41;100915.95;5152293;56;1142853;-72
2023/06/06 22:56:29;;;;;;;28.10;11.33;;;;;;;20.46;63.05;100913.25;5152488;56;1143029;-73
2023/06/06 23:01:35;;;;;;;20.55;9.83;;;;;;;20.42;62.38;100911.92;5172099;57;1142754;-70
2023/06/06 23:06:41;;;;;;;16.80;8.10;;;;;;;20.40;62.65;100911.25;5152220;57;1140705;-70
2023/06/06 23:11:47;;;;;;;11.65;6.80;;;;;;;20.37;62.06;100903.53;5152434;57;1141012;-72